sensor_id;sensor_type;location;lat;lon;timestamp;pressure;altitude;pressure_sealevel;temperature;humidity
62849;BME280;48941;49.516;8.286;2023-02-14T00:00:52;102371.72;;;1.96;95.17
62849;BME280;48941;49.516;8.286;2023-02-14T00:03:20;102368.25;;;1.94;95.38
62849;BME280;48941;49.516;8.286;2023-02-14T00:05:48;102357.75;;;1.92;95.38
62849;BME280;48941;49.516;8.286;2023-02-14T00:08:16;102359.53;;;1.87;95.49
62849;BME280;48941;49.516;8.286;2023-02-14T00:10:43;102363.06;;;1.88;96.15
62849;BME280;48941;49.516;8.286;2023-02-14T00:13:11;102359.53;;;1.87;96.48
62849;BME280;48941;49.516;8.286;2023-02-14T00:15:40;102363.00;;;1.91;96.41
62849;BME280;48941;49.516;8.286;2023-02-14T00:18:07;102362.16;;;1.90;96.69
62849;BME280;48941;49.516;8.286;2023-02-14T00:20:35;102357.75;;;1.89;96.63
62849;BME280;48941;49.516;8.286;2023-02-14T00:23:02;102358.69;;;1.84;96.75
62849;BME280;48941;49.516;8.286;2023-02-14T00:25:32;102351.75;;;1.79;96.73
62849;BME280;48941;49.516;8.286;2023-02-14T00:28:00;102356.16;;;1.77;96.72
62849;BME280;48941;49.516;8.286;2023-02-14T00:30:28;102352.72;;;1.72;96.76
62849;BME280;48941;49.516;8.286;2023-02-14T00:32:57;102351.81;;;1.75;96.75
62849;BME280;48941;49.516;8.286;2023-02-14T00:35:25;102357.06;;;1.75;96.50
62849;BME280;48941;49.516;8.286;2023-02-14T00:37:54;102351.88;;;1.69;96.50
62849;BME280;48941;49.516;8.286;2023-02-14T00:40:22;102348.41;;;1.67;96.45
62849;BME280;48941;49.516;8.286;2023-02-14T00:42:50;102344.94;;;1.63;96.61
62849;BME280;48941;49.516;8.286;2023-02-14T00:45:17;102350.22;;;1.62;96.81
62849;BME280;48941;49.516;8.286;2023-02-14T00:47:45;102359.88;;;1.59;96.80
62849;BME280;48941;49.516;8.286;2023-02-14T00:50:15;102365.16;;;1.58;96.67
62849;BME280;48941;49.516;8.286;2023-02-14T00:52:42;102365.22;;;1.52;96.56
62849;BME280;48941;49.516;8.286;2023-02-14T00:55:10;102359.97;;;1.50;96.55
62849;BME280;48941;49.516;8.286;2023-02-14T00:57:38;102360.91;;;1.45;96.61
62849;BME280;48941;49.516;8.286;2023-02-14T01:00:07;102353.06;;;1.42;96.72
62849;BME280;48941;49.516;8.286;2023-02-14T01:02:35;102346.09;;;1.37;96.92
62849;BME280;48941;49.516;8.286;2023-02-14T01:05:03;102358.34;;;1.40;97.05
62849;BME280;48941;49.516;8.286;2023-02-14T01:07:32;102356.63;;;1.36;96.61
62849;BME280;48941;49.516;8.286;2023-02-14T01:10:00;102363.69;;;1.31;96.54
62849;BME280;48941;49.516;8.286;2023-02-14T01:12:28;102366.38;;;1.25;96.73
62849;BME280;48941;49.516;8.286;2023-02-14T01:14:56;102362.88;;;1.24;97.17
62849;BME280;48941;49.516;8.286;2023-02-14T01:17:24;102369.00;;;1.23;97.07
62849;BME280;48941;49.516;8.286;2023-02-14T01:19:52;102365.50;;;1.24;96.77
62849;BME280;48941;49.516;8.286;2023-02-14T01:22:20;102367.28;;;1.21;96.66
62849;BME280;48941;49.516;8.286;2023-02-14T01:24:49;102359.47;;;1.14;96.41
62849;BME280;48941;49.516;8.286;2023-02-14T01:27:17;102367.47;;;1.02;96.29
62849;BME280;48941;49.516;8.286;2023-02-14T01:29:45;102368.38;;;0.98;96.69
62849;BME280;48941;49.516;8.286;2023-02-14T01:32:13;102356.97;;;0.99;97.32
62849;BME280;48941;49.516;8.286;2023-02-14T01:34:40;102350.88;;;0.98;98.09
62849;BME280;48941;49.516;8.286;2023-02-14T01:37:08;102359.59;;;1.02;98.23
62849;BME280;48941;49.516;8.286;2023-02-14T01:39:36;102351.69;;;1.04;98.38
62849;BME280;48941;49.516;8.286;2023-02-14T01:42:05;102356.06;;;1.05;98.41
62849;BME280;48941;49.516;8.286;2023-02-14T01:44:58;102352.59;;;1.01;98.40
62849;BME280;48941;49.516;8.286;2023-02-14T01:47:28;102358.72;;;1.00;98.29
62849;BME280;48941;49.516;8.286;2023-02-14T01:50:01;102362.22;;;0.99;98.42
62849;BME280;48941;49.516;8.286;2023-02-14T01:52:32;102359.59;;;0.99;98.30
62849;BME280;48941;49.516;8.286;2023-02-14T01:55:05;102362.22;;;0.97;98.02
62849;BME280;48941;49.516;8.286;2023-02-14T01:57:38;102368.38;;;0.95;98.09
62849;BME280;48941;49.516;8.286;2023-02-14T02:00:08;102364.91;;;0.93;98.07
62849;BME280;48941;49.516;8.286;2023-02-14T02:02:54;102372.78;;;0.90;98.20
62849;BME280;48941;49.516;8.286;2023-02-14T02:05:22;102366.69;;;0.88;98.10
62849;BME280;48941;49.516;8.286;2023-02-14T02:07:51;102368.44;;;0.87;97.40
62849;BME280;48941;49.516;8.286;2023-02-14T02:10:19;102376.34;;;0.84;97.87
62849;BME280;48941;49.516;8.286;2023-02-14T02:12:49;102379.00;;;0.81;97.82
62849;BME280;48941;49.516;8.286;2023-02-14T02:15:18;102382.47;;;0.82;98.08
62849;BME280;48941;49.516;8.286;2023-02-14T02:17:52;102379.91;;;0.77;98.33
62849;BME280;48941;49.516;8.286;2023-02-14T02:27:06;102378.97;;;0.84;98.54
62849;BME280;48941;49.516;8.286;2023-02-14T02:36:28;102370.22;;;0.84;98.26
62849;BME280;48941;49.516;8.286;2023-02-14T02:39:11;102363.28;;;0.78;98.17
62849;BME280;48941;49.516;8.286;2023-02-14T02:41:49;102363.28;;;0.78;98.15
62849;BME280;48941;49.516;8.286;2023-02-14T02:44:28;102369.41;;;0.74;98.27
62849;BME280;48941;49.516;8.286;2023-02-14T02:47:03;102365.94;;;0.75;98.27
62849;BME280;48941;49.516;8.286;2023-02-14T02:49:40;102370.31;;;0.76;98.27
62849;BME280;48941;49.516;8.286;2023-02-14T02:52:36;102363.25;;;0.79;98.36
62849;BME280;48941;49.516;8.286;2023-02-14T02:55:29;102365.00;;;0.82;98.69
62849;BME280;48941;49.516;8.286;2023-02-14T02:58:23;102358.00;;;0.83;98.88
62849;BME280;48941;49.516;8.286;2023-02-14T03:00:52;102358.88;;;0.82;98.92
62849;BME280;48941;49.516;8.286;2023-02-14T03:03:23;102360.63;;;0.81;99.39
62849;BME280;48941;49.516;8.286;2023-02-14T03:06:09;102363.25;;;0.81;99.59
62849;BME280;48941;49.516;8.286;2023-02-14T03:08:38;102368.50;;;0.79;99.69
62849;BME280;48941;49.516;8.286;2023-02-14T03:11:06;102371.13;;;0.79;99.81
62849;BME280;48941;49.516;8.286;2023-02-14T03:13:46;102377.28;;;0.78;99.74
62849;BME280;48941;49.516;8.286;2023-02-14T03:16:31;102375.56;;;0.73;99.55
62849;BME280;48941;49.516;8.286;2023-02-14T03:19:25;102375.59;;;0.68;99.74
62849;BME280;48941;49.516;8.286;2023-02-14T03:22:20;102370.31;;;0.73;99.38
62849;BME280;48941;49.516;8.286;2023-02-14T03:25:02;102365.94;;;0.75;99.55
62849;BME280;48941;49.516;8.286;2023-02-14T03:27:38;102371.16;;;0.75;99.42
62849;BME280;48941;49.516;8.286;2023-02-14T03:30:13;102370.31;;;0.71;99.56
62849;BME280;48941;49.516;8.286;2023-02-14T03:32:46;102369.47;;;0.68;99.87
62849;BME280;48941;49.516;8.286;2023-02-14T03:35:22;102372.09;;;0.69;99.96
62849;BME280;48941;49.516;8.286;2023-02-14T03:37:55;102362.50;;;0.65;100.00
62849;BME280;48941;49.516;8.286;2023-02-14T03:40:33;102370.38;;;0.65;100.00
62849;BME280;48941;49.516;8.286;2023-02-14T03:43:04;102370.38;;;0.64;100.00
62849;BME280;48941;49.516;8.286;2023-02-14T03:45:38;102367.78;;;0.61;100.00
62849;BME280;48941;49.516;8.286;2023-02-14T03:48:10;102363.44;;;0.58;100.00
62849;BME280;48941;49.516;8.286;2023-02-14T03:50:41;102359.91;;;0.57;100.00
62849;BME280;48941;49.516;8.286;2023-02-14T03:53:11;102370.47;;;0.53;100.00
62849;BME280;48941;49.516;8.286;2023-02-14T03:55:47;102369.59;;;0.52;100.00
62849;BME280;48941;49.516;8.286;2023-02-14T03:58:20;102366.97;;;0.49;100.00
62849;BME280;48941;49.516;8.286;2023-02-14T04:00:51;102367.88;;;0.47;100.00
62849;BME280;48941;49.516;8.286;2023-02-14T04:03:22;102381.00;;;0.44;100.00
62849;BME280;48941;49.516;8.286;2023-02-14T04:05:51;102376.63;;;0.44;100.00
62849;BME280;48941;49.516;8.286;2023-02-14T04:08:20;102383.66;;;0.37;100.00
62849;BME280;48941;49.516;8.286;2023-02-14T04:10:50;102386.28;;;0.39;100.00
62849;BME280;48941;49.516;8.286;2023-02-14T04:13:19;102391.56;;;0.34;100.00
62849;BME280;48941;49.516;8.286;2023-02-14T04:15:46;102384.59;;;0.29;100.00
62849;BME280;48941;49.516;8.286;2023-02-14T04:18:14;102387.22;;;0.27;100.00
62849;BME280;48941;49.516;8.286;2023-02-14T04:21:00;102386.38;;;0.22;100.00
62849;BME280;48941;49.516;8.286;2023-02-14T04:23:28;102394.25;;;0.21;100.00
62849;BME280;48941;49.516;8.286;2023-02-14T04:25:57;102392.47;;;0.23;100.00
62849;BME280;48941;49.516;8.286;2023-02-14T04:28:25;102395.97;;;0.23;100.00
62849;BME280;48941;49.516;8.286;2023-02-14T04:30:53;102394.22;;;0.24;100.00
62849;BME280;48941;49.516;8.286;2023-02-14T04:33:20;102396.84;;;0.24;100.00
62849;BME280;48941;49.516;8.286;2023-02-14T04:35:48;102397.72;;;0.23;100.00
62849;BME280;48941;49.516;8.286;2023-02-14T04:38:16;102391.59;;;0.25;100.00
62849;BME280;48941;49.516;8.286;2023-02-14T04:40:44;102388.97;;;0.28;100.00
62849;BME280;48941;49.516;8.286;2023-02-14T04:43:13;102392.47;;;0.24;100.00
62849;BME280;48941;49.516;8.286;2023-02-14T04:45:41;102389.84;;;0.26;100.00
62849;BME280;48941;49.516;8.286;2023-02-14T04:48:08;102390.69;;;0.31;100.00
62849;BME280;48941;49.516;8.286;2023-02-14T04:50:36;102387.22;;;0.29;100.00
62849;BME280;48941;49.516;8.286;2023-02-14T04:53:04;102395.06;;;0.30;100.00
62849;BME280;48941;49.516;8.286;2023-02-14T04:55:32;102389.81;;;0.29;100.00
62849;BME280;48941;49.516;8.286;2023-02-14T04:57:59;102391.59;;;0.28;100.00
62849;BME280;48941;49.516;8.286;2023-02-14T05:00:28;102387.22;;;0.29;100.00
62849;BME280;48941;49.516;8.286;2023-02-14T05:02:56;102379.31;;;0.32;100.00
62849;BME280;48941;49.516;8.286;2023-02-14T05:05:24;102378.44;;;0.34;100.00
62849;BME280;48941;49.516;8.286;2023-02-14T05:07:52;102374.06;;;0.33;100.00
62849;BME280;48941;49.516;8.286;2023-02-14T05:10:19;102379.31;;;0.36;100.00
62849;BME280;48941;49.516;8.286;2023-02-14T05:12:47;102373.16;;;0.37;100.00
62849;BME280;48941;49.516;8.286;2023-02-14T05:15:15;102375.78;;;0.39;100.00
62849;BME280;48941;49.516;8.286;2023-02-14T05:17:44;102378.38;;;0.44;100.00
62849;BME280;48941;49.516;8.286;2023-02-14T05:20:12;102374.88;;;0.45;100.00
62849;BME280;48941;49.516;8.286;2023-02-14T05:22:40;102380.13;;;0.42;100.00
62849;BME280;48941;49.516;8.286;2023-02-14T05:25:08;102372.25;;;0.46;100.00
62849;BME280;48941;49.516;8.286;2023-02-14T05:27:35;102379.22;;;0.47;100.00
62849;BME280;48941;49.516;8.286;2023-02-14T05:30:04;102373.97;;;0.50;100.00
62849;BME280;48941;49.516;8.286;2023-02-14T05:32:32;102375.69;;;0.53;100.00
62849;BME280;48941;49.516;8.286;2023-02-14T05:35:01;102376.56;;;0.53;100.00
62849;BME280;48941;49.516;8.286;2023-02-14T05:37:29;102377.44;;;0.55;100.00
62849;BME280;48941;49.516;8.286;2023-02-14T05:39:57;102376.56;;;0.58;100.00
62849;BME280;48941;49.516;8.286;2023-02-14T05:42:25;102377.41;;;0.58;100.00
62849;BME280;48941;49.516;8.286;2023-02-14T05:44:53;102373.91;;;0.61;100.00
62849;BME280;48941;49.516;8.286;2023-02-14T05:47:20;102373.03;;;0.62;100.00
62849;BME280;48941;49.516;8.286;2023-02-14T05:49:48;102375.63;;;0.64;100.00
62849;BME280;48941;49.516;8.286;2023-02-14T05:52:17;102373.88;;;0.64;100.00
62849;BME280;48941;49.516;8.286;2023-02-14T05:54:45;102375.59;;;0.65;100.00
62849;BME280;48941;49.516;8.286;2023-02-14T05:57:13;102375.59;;;0.67;100.00
62849;BME280;48941;49.516;8.286;2023-02-14T05:59:41;102380.00;;;0.65;100.00
62849;BME280;48941;49.516;8.286;2023-02-14T06:02:09;102384.38;;;0.63;100.00
62849;BME280;48941;49.516;8.286;2023-02-14T06:04:37;102379.13;;;0.64;100.00
62849;BME280;48941;49.516;8.286;2023-02-14T06:07:05;102378.22;;;0.65;100.00
62849;BME280;48941;49.516;8.286;2023-02-14T06:09:34;102378.22;;;0.67;100.00
62849;BME280;48941;49.516;8.286;2023-02-14T06:12:02;102381.72;;;0.69;100.00
62849;BME280;48941;49.516;8.286;2023-02-14T06:14:31;102384.34;;;0.70;100.00
62849;BME280;48941;49.516;8.286;2023-02-14T06:16:59;102386.06;;;0.71;100.00
62849;BME280;48941;49.516;8.286;2023-02-14T06:19:27;102381.66;;;0.75;100.00
62849;BME280;48941;49.516;8.286;2023-02-14T06:21:55;102388.63;;;0.79;100.00
62849;BME280;48941;49.516;8.286;2023-02-14T06:24:23;102393.88;;;0.81;100.00
62849;BME280;48941;49.516;8.286;2023-02-14T06:26:52;102388.63;;;0.81;100.00
62849;BME280;48941;49.516;8.286;2023-02-14T06:29:19;102388.63;;;0.82;100.00
62849;BME280;48941;49.516;8.286;2023-02-14T06:31:48;102389.47;;;0.84;100.00
62849;BME280;48941;49.516;8.286;2023-02-14T06:34:16;102400.78;;;0.88;100.00
62849;BME280;48941;49.516;8.286;2023-02-14T06:36:44;102401.66;;;0.90;100.00
62849;BME280;48941;49.516;8.286;2023-02-14T06:39:12;102404.28;;;0.91;100.00
62849;BME280;48941;49.516;8.286;2023-02-14T06:41:39;102405.97;;;0.95;100.00
62849;BME280;48941;49.516;8.286;2023-02-14T06:44:08;102413.00;;;0.93;100.00
62849;BME280;48941;49.516;8.286;2023-02-14T06:46:36;102413.00;;;0.96;100.00
62849;BME280;48941;49.516;8.286;2023-02-14T06:49:04;102412.97;;;0.98;100.00
62849;BME280;48941;49.516;8.286;2023-02-14T06:51:32;102418.19;;;0.99;100.00
62849;BME280;48941;49.516;8.286;2023-02-14T06:54:00;102411.22;;;0.97;100.00
62849;BME280;48941;49.516;8.286;2023-02-14T06:56:27;102422.59;;;0.97;100.00
62849;BME280;48941;49.516;8.286;2023-02-14T06:58:55;102419.97;;;0.99;100.00
62849;BME280;48941;49.516;8.286;2023-02-14T07:01:24;102418.19;;;1.04;100.00
62849;BME280;48941;49.516;8.286;2023-02-14T07:03:52;102416.44;;;1.03;100.00
62849;BME280;48941;49.516;8.286;2023-02-14T07:06:20;102412.03;;;1.07;100.00
62849;BME280;48941;49.516;8.286;2023-02-14T07:08:48;102410.25;;;1.10;100.00
62849;BME280;48941;49.516;8.286;2023-02-14T07:11:17;102411.13;;;1.11;100.00
62849;BME280;48941;49.516;8.286;2023-02-14T07:13:44;102411.97;;;1.10;100.00
62849;BME280;48941;49.516;8.286;2023-02-14T07:16:14;102410.22;;;1.13;100.00
62849;BME280;48941;49.516;8.286;2023-02-14T07:18:44;102411.97;;;1.14;100.00
62849;BME280;48941;49.516;8.286;2023-02-14T07:21:11;102414.59;;;1.13;100.00
62849;BME280;48941;49.516;8.286;2023-02-14T07:23:39;102408.47;;;1.14;100.00
62849;BME280;48941;49.516;8.286;2023-02-14T07:26:07;102411.09;;;1.14;100.00
62849;BME280;48941;49.516;8.286;2023-02-14T07:28:35;102412.84;;;1.15;100.00
62849;BME280;48941;49.516;8.286;2023-02-14T07:31:03;102411.06;;;1.17;100.00
62849;BME280;48941;49.516;8.286;2023-02-14T07:33:31;102406.72;;;1.16;100.00
62849;BME280;48941;49.516;8.286;2023-02-14T07:36:03;102403.19;;;1.18;100.00
62849;BME280;48941;49.516;8.286;2023-02-14T07:38:31;102411.00;;;1.22;100.00
62849;BME280;48941;49.516;8.286;2023-02-14T07:40:58;102408.44;;;1.20;100.00
62849;BME280;48941;49.516;8.286;2023-02-14T07:43:27;102407.47;;;1.26;100.00
62849;BME280;48941;49.516;8.286;2023-02-14T07:45:55;102405.81;;;1.20;100.00
62849;BME280;48941;49.516;8.286;2023-02-14T07:48:23;102405.75;;;1.22;100.00
62849;BME280;48941;49.516;8.286;2023-02-14T07:50:51;102410.09;;;1.27;100.00
62849;BME280;48941;49.516;8.286;2023-02-14T07:53:23;102410.06;;;1.32;100.00
62849;BME280;48941;49.516;8.286;2023-02-14T07:55:51;102402.09;;;1.41;100.00
62849;BME280;48941;49.516;8.286;2023-02-14T07:58:19;102401.16;;;1.48;100.00
62849;BME280;48941;49.516;8.286;2023-02-14T08:00:47;102402.88;;;1.49;100.00
62849;BME280;48941;49.516;8.286;2023-02-14T08:03:16;102401.97;;;1.53;100.00
62849;BME280;48941;49.516;8.286;2023-02-14T08:05:44;102392.41;;;1.46;100.00
62849;BME280;48941;49.516;8.286;2023-02-14T08:08:25;102406.41;;;1.45;100.00
62849;BME280;48941;49.516;8.286;2023-02-14T08:10:53;102402.84;;;1.52;100.00
62849;BME280;48941;49.516;8.286;2023-02-14T08:13:21;102405.50;;;1.49;100.00
62849;BME280;48941;49.516;8.286;2023-02-14T08:15:48;102391.44;;;1.58;100.00
62849;BME280;48941;49.516;8.286;2023-02-14T08:18:34;102393.13;;;1.62;100.00
62849;BME280;48941;49.516;8.286;2023-02-14T08:21:02;102396.63;;;1.63;100.00
62849;BME280;48941;49.516;8.286;2023-02-14T08:23:33;102401.00;;;1.62;100.00
62849;BME280;48941;49.516;8.286;2023-02-14T08:26:01;102401.88;;;1.64;100.00
62849;BME280;48941;49.516;8.286;2023-02-14T08:28:29;102400.09;;;1.66;100.00
62849;BME280;48941;49.516;8.286;2023-02-14T08:30:58;102400.09;;;1.66;100.00
62849;BME280;48941;49.516;8.286;2023-02-14T08:33:27;102400.09;;;1.65;100.00
62849;BME280;48941;49.516;8.286;2023-02-14T08:35:55;102406.19;;;1.67;100.00
62849;BME280;48941;49.516;8.286;2023-02-14T08:38:23;102410.56;;;1.68;100.00
62849;BME280;48941;49.516;8.286;2023-02-14T08:40:52;102399.19;;;1.69;100.00
62849;BME280;48941;49.516;8.286;2023-02-14T08:43:20;102402.66;;;1.69;100.00
62849;BME280;48941;49.516;8.286;2023-02-14T08:45:51;102399.16;;;1.70;100.00
62849;BME280;48941;49.516;8.286;2023-02-14T08:48:19;102402.66;;;1.71;100.00
62849;BME280;48941;49.516;8.286;2023-02-14T08:50:49;102404.38;;;1.73;100.00
62849;BME280;48941;49.516;8.286;2023-02-14T08:53:16;102398.25;;;1.73;100.00
62849;BME280;48941;49.516;8.286;2023-02-14T08:55:44;102395.59;;;1.76;100.00
62849;BME280;48941;49.516;8.286;2023-02-14T08:58:14;102395.59;;;1.76;100.00
62849;BME280;48941;49.516;8.286;2023-02-14T09:00:42;102406.03;;;1.82;100.00
62849;BME280;48941;49.516;8.286;2023-02-14T09:03:11;102407.75;;;1.83;100.00
62849;BME280;48941;49.516;8.286;2023-02-14T09:05:39;102402.50;;;1.86;100.00
62849;BME280;48941;49.516;8.286;2023-02-14T09:08:07;102406.81;;;1.89;100.00
62849;BME280;48941;49.516;8.286;2023-02-14T09:10:35;102406.81;;;1.92;100.00
62849;BME280;48941;49.516;8.286;2023-02-14T09:13:03;102392.78;;;1.91;100.00
62849;BME280;48941;49.516;8.286;2023-02-14T09:15:32;102398.88;;;1.95;100.00
62849;BME280;48941;49.516;8.286;2023-02-14T09:18:00;102399.72;;;1.98;100.00
62849;BME280;48941;49.516;8.286;2023-02-14T09:20:28;102402.34;;;1.97;100.00
62849;BME280;48941;49.516;8.286;2023-02-14T09:22:56;102400.56;;;1.99;100.00
62849;BME280;48941;49.516;8.286;2023-02-14T09:25:23;102396.25;;;1.95;100.00
62849;BME280;48941;49.516;8.286;2023-02-14T09:27:51;102394.53;;;1.94;100.00
62849;BME280;48941;49.516;8.286;2023-02-14T09:30:19;102404.13;;;1.93;100.00
62849;BME280;48941;49.516;8.286;2023-02-14T09:32:50;102393.59;;;1.96;100.00
62849;BME280;48941;49.516;8.286;2023-02-14T09:35:18;102397.06;;;2.00;100.00
62849;BME280;48941;49.516;8.286;2023-02-14T09:38:03;102393.53;;;2.01;100.00
62849;BME280;48941;49.516;8.286;2023-02-14T09:40:31;102393.59;;;1.96;100.00
62849;BME280;48941;49.516;8.286;2023-02-14T09:43:05;102397.94;;;1.99;100.00
62849;BME280;48941;49.516;8.286;2023-02-14T09:45:35;102398.78;;;2.01;100.00
62849;BME280;48941;49.516;8.286;2023-02-14T09:48:11;102392.66;;;2.02;100.00
62849;BME280;48941;49.516;8.286;2023-02-14T09:50:45;102386.41;;;2.11;100.00
62849;BME280;48941;49.516;8.286;2023-02-14T09:53:17;102391.72;;;2.06;100.00
62849;BME280;48941;49.516;8.286;2023-02-14T09:55:49;102385.63;;;2.03;100.00
62849;BME280;48941;49.516;8.286;2023-02-14T09:58:22;102393.50;;;2.04;100.00
62849;BME280;48941;49.516;8.286;2023-02-14T10:00:56;102389.09;;;2.06;100.00
62849;BME280;48941;49.516;8.286;2023-02-14T10:03:53;102398.69;;;2.10;100.00
62849;BME280;48941;49.516;8.286;2023-02-14T10:06:41;102381.97;;;2.14;100.00
62849;BME280;48941;49.516;8.286;2023-02-14T10:09:20;102391.59;;;2.17;100.00
62849;BME280;48941;49.516;8.286;2023-02-14T10:11:56;102388.03;;;2.21;100.00
62849;BME280;48941;49.516;8.286;2023-02-14T10:14:28;102380.19;;;2.18;100.00
62849;BME280;48941;49.516;8.286;2023-02-14T10:17:00;102379.34;;;2.16;100.00
62849;BME280;48941;49.516;8.286;2023-02-14T10:19:36;102380.16;;;2.19;100.00
62849;BME280;48941;49.516;8.286;2023-02-14T10:22:08;102372.31;;;2.16;100.00
62849;BME280;48941;49.516;8.286;2023-02-14T10:24:42;102373.09;;;2.22;100.00
62849;BME280;48941;49.516;8.286;2023-02-14T10:27:13;102375.78;;;2.20;100.00
62849;BME280;48941;49.516;8.286;2023-02-14T10:29:44;102377.47;;;2.26;100.00
62849;BME280;48941;49.516;8.286;2023-02-14T10:32:14;102380.88;;;2.32;100.00
62849;BME280;48941;49.516;8.286;2023-02-14T10:34:48;102380.88;;;2.29;99.88
62849;BME280;48941;49.516;8.286;2023-02-14T10:37:23;102375.63;;;2.29;99.95
62849;BME280;48941;49.516;8.286;2023-02-14T10:40:20;102372.03;;;2.36;100.00
62849;BME280;48941;49.516;8.286;2023-02-14T10:42:56;102363.22;;;2.41;99.75
62849;BME280;48941;49.516;8.286;2023-02-14T10:45:33;102357.88;;;2.44;99.00
62849;BME280;48941;49.516;8.286;2023-02-14T10:48:14;102363.19;;;2.42;98.73
62849;BME280;48941;49.516;8.286;2023-02-14T10:50:51;102361.44;;;2.41;98.93
62849;BME280;48941;49.516;8.286;2023-02-14T10:53:28;102354.34;;;2.48;99.00
62849;BME280;48941;49.516;8.286;2023-02-14T10:56:02;102352.56;;;2.50;98.60
62849;BME280;48941;49.516;8.286;2023-02-14T10:58:35;102346.56;;;2.40;99.12
62849;BME280;48941;49.516;8.286;2023-02-14T11:01:06;102350.91;;;2.44;98.83
62849;BME280;48941;49.516;8.286;2023-02-14T11:03:37;102344.72;;;2.45;98.42
62849;BME280;48941;49.516;8.286;2023-02-14T11:06:10;102344.78;;;2.42;98.27
62849;BME280;48941;49.516;8.286;2023-02-14T11:08:39;102341.34;;;2.37;98.86
62849;BME280;48941;49.516;8.286;2023-02-14T11:11:15;102344.81;;;2.41;99.38
62849;BME280;48941;49.516;8.286;2023-02-14T11:13:44;102340.28;;;2.49;98.78
62849;BME280;48941;49.516;8.286;2023-02-14T11:16:18;102336.00;;;2.43;98.86
62849;BME280;48941;49.516;8.286;2023-02-14T11:18:46;102329.97;;;2.36;99.02
62849;BME280;48941;49.516;8.286;2023-02-14T11:21:16;102335.22;;;2.38;99.30
62849;BME280;48941;49.516;8.286;2023-02-14T11:23:48;102326.38;;;2.41;99.54
62849;BME280;48941;49.516;8.286;2023-02-14T11:26:21;102330.72;;;2.45;99.60
62849;BME280;48941;49.516;8.286;2023-02-14T11:28:50;102328.91;;;2.48;99.45
62849;BME280;48941;49.516;8.286;2023-02-14T11:31:27;102327.00;;;2.58;98.87
62849;BME280;48941;49.516;8.286;2023-02-14T11:33:57;102323.41;;;2.64;98.29
62849;BME280;48941;49.516;8.286;2023-02-14T11:36:28;102323.41;;;2.64;98.26
62849;BME280;48941;49.516;8.286;2023-02-14T11:39:02;102319.00;;;2.64;98.01
62849;BME280;48941;49.516;8.286;2023-02-14T11:41:48;102319.06;;;2.59;98.00
62849;BME280;48941;49.516;8.286;2023-02-14T11:44:18;102309.38;;;2.63;97.66
62849;BME280;48941;49.516;8.286;2023-02-14T11:46:49;102309.47;;;2.57;97.65
62849;BME280;48941;49.516;8.286;2023-02-14T11:49:37;102305.13;;;2.54;97.96
62849;BME280;48941;49.516;8.286;2023-02-14T11:52:10;102298.97;;;2.55;98.40
62849;BME280;48941;49.516;8.286;2023-02-14T11:54:46;102294.63;;;2.54;98.02
62849;BME280;48941;49.516;8.286;2023-02-14T11:57:19;102292.84;;;2.53;98.10
62849;BME280;48941;49.516;8.286;2023-02-14T11:59:50;102291.13;;;2.52;98.33
62849;BME280;48941;49.516;8.286;2023-02-14T12:02:31;102284.09;;;2.53;98.71
62849;BME280;48941;49.516;8.286;2023-02-14T12:05:05;102288.59;;;2.48;98.53
62849;BME280;48941;49.516;8.286;2023-02-14T12:07:36;102282.50;;;2.46;98.81
62849;BME280;48941;49.516;8.286;2023-02-14T12:10:26;102279.84;;;2.46;98.98
62849;BME280;48941;49.516;8.286;2023-02-14T12:12:57;102273.56;;;2.54;99.16
62849;BME280;48941;49.516;8.286;2023-02-14T12:15:31;102274.44;;;2.53;99.33
62849;BME280;48941;49.516;8.286;2023-02-14T12:18:24;102263.88;;;2.58;99.36
62849;BME280;48941;49.516;8.286;2023-02-14T12:21:00;102270.00;;;2.57;99.25
62849;BME280;48941;49.516;8.286;2023-02-14T12:23:38;102263.75;;;2.66;99.00
62849;BME280;48941;49.516;8.286;2023-02-14T12:26:13;102263.63;;;2.72;98.39
62849;BME280;48941;49.516;8.286;2023-02-14T12:28:48;102258.38;;;2.72;97.69
62849;BME280;48941;49.516;8.286;2023-02-14T12:31:18;102260.06;;;2.76;97.36
62849;BME280;48941;49.516;8.286;2023-02-14T12:33:46;102259.03;;;2.83;97.56
62849;BME280;48941;49.516;8.286;2023-02-14T12:36:26;102257.22;;;2.87;97.38
62849;BME280;48941;49.516;8.286;2023-02-14T12:39:05;102257.16;;;2.90;97.19
62849;BME280;48941;49.516;8.286;2023-02-14T12:41:43;102256.25;;;2.92;96.93
62849;BME280;48941;49.516;8.286;2023-02-14T12:44:18;102253.84;;;2.80;96.94
62849;BME280;48941;49.516;8.286;2023-02-14T12:47:02;102246.81;;;2.79;97.47
62849;BME280;48941;49.516;8.286;2023-02-14T12:53:01;102243.34;;;2.77;97.99
62849;BME280;48941;49.516;8.286;2023-02-14T12:55:44;102241.63;;;2.76;98.09
62849;BME280;48941;49.516;8.286;2023-02-14T12:58:25;102247.00;;;2.70;98.09
62849;BME280;48941;49.516;8.286;2023-02-14T13:01:05;102239.13;;;2.70;97.92
62849;BME280;48941;49.516;8.286;2023-02-14T13:03:49;102231.22;;;2.70;97.78
62849;BME280;48941;49.516;8.286;2023-02-14T13:06:28;102231.22;;;2.70;97.82
62849;BME280;48941;49.516;8.286;2023-02-14T13:09:08;102225.03;;;2.72;98.00
62849;BME280;48941;49.516;8.286;2023-02-14T13:11:50;102225.06;;;2.69;97.32
62849;BME280;48941;49.516;8.286;2023-02-14T13:14:34;102217.09;;;2.74;97.25
62849;BME280;48941;49.516;8.286;2023-02-14T13:17:10;102217.88;;;2.79;97.12
62849;BME280;48941;49.516;8.286;2023-02-14T13:19:48;102217.84;;;2.81;97.22
62849;BME280;48941;49.516;8.286;2023-02-14T13:22:22;102211.41;;;2.95;96.52
62849;BME280;48941;49.516;8.286;2023-02-14T13:24:55;102213.38;;;2.86;96.80
62849;BME280;48941;49.516;8.286;2023-02-14T13:27:26;102213.22;;;2.93;96.85
62849;BME280;48941;49.516;8.286;2023-02-14T13:29:58;102206.28;;;2.89;96.30
62849;BME280;48941;49.516;8.286;2023-02-14T13:32:30;102206.25;;;2.91;96.53
62849;BME280;48941;49.516;8.286;2023-02-14T13:34:59;102199.25;;;2.90;97.06